createdAt,value
2018-04-09T00:01:05.326Z,14.70
2018-04-09T00:03:34.088Z,14.60
2018-04-09T00:06:02.432Z,14.50
2018-04-09T00:08:31.464Z,14.40
2018-04-09T00:11:00.164Z,14.40
2018-04-09T00:13:28.408Z,14.40
2018-04-09T00:15:56.657Z,14.30
2018-04-09T00:18:24.928Z,14.30
2018-04-09T00:20:53.487Z,14.30
2018-04-09T00:23:21.713Z,14.30
2018-04-09T00:25:51.040Z,14.20
2018-04-09T00:28:19.340Z,14.20
2018-04-09T00:30:47.731Z,14.20
2018-04-09T00:33:16.013Z,14.10
2018-04-09T00:35:44.262Z,14.10
2018-04-09T00:38:12.514Z,14.20
2018-04-09T00:40:41.313Z,14.30
2018-04-09T00:43:09.636Z,14.30
2018-04-09T00:45:38.085Z,14.10
2018-04-09T00:48:06.412Z,14.00
2018-04-09T00:50:35.460Z,13.90
2018-04-09T00:53:03.753Z,13.80
2018-04-09T00:55:32.179Z,13.90
2018-04-09T00:58:00.440Z,13.90
2018-04-09T01:00:28.897Z,13.90
2018-04-09T01:02:57.165Z,13.80
2018-04-09T01:05:25.409Z,13.80
2018-04-09T01:07:53.764Z,13.70
2018-04-09T01:10:23.104Z,13.50
2018-04-09T01:12:51.357Z,13.40
2018-04-09T01:15:21.637Z,13.40
2018-04-09T01:17:49.908Z,13.30
2018-04-09T01:20:18.384Z,13.30
2018-04-09T01:22:46.636Z,13.30
2018-04-09T01:25:14.919Z,13.30
2018-04-09T01:27:43.148Z,13.30
2018-04-09T01:30:11.397Z,13.30
2018-04-09T01:32:40.620Z,13.40
2018-04-09T01:35:09.633Z,13.50
2018-04-09T01:37:37.884Z,13.50
2018-04-09T01:40:06.964Z,13.40
2018-04-09T01:42:35.336Z,13.20
2018-04-09T01:45:03.581Z,12.90
2018-04-09T01:47:31.856Z,12.80
2018-04-09T01:50:00.105Z,12.70
2018-04-09T01:52:28.564Z,12.70
2018-04-09T01:54:56.996Z,12.70
2018-04-09T01:57:25.244Z,12.80
2018-04-09T01:59:53.681Z,12.80
2018-04-09T02:02:22.089Z,12.70
2018-04-09T02:04:51.108Z,12.50
2018-04-09T02:07:19.360Z,12.50
2018-04-09T02:09:47.637Z,12.50
2018-04-09T02:12:15.892Z,12.40
2018-04-09T02:14:44.140Z,12.40
2018-04-09T02:17:12.460Z,12.50
2018-04-09T02:19:40.720Z,12.40
2018-04-09T02:22:08.972Z,12.30
2018-04-09T02:24:37.240Z,12.30
2018-04-09T02:27:05.492Z,12.30
2018-04-09T02:29:33.749Z,12.20
2018-04-09T02:32:02.007Z,12.20
2018-04-09T02:34:30.249Z,12.10
2018-04-09T02:36:58.518Z,12.10
2018-04-09T02:39:27.213Z,12.10
2018-04-09T02:41:55.855Z,12.10
2018-04-09T02:44:26.964Z,12.00
2018-04-09T02:46:55.241Z,12.00
2018-04-09T02:49:23.494Z,11.90
2018-04-09T02:51:51.875Z,11.80
2018-04-09T02:54:20.153Z,11.80
2018-04-09T02:56:48.396Z,11.70
2018-04-09T02:59:16.649Z,11.70
2018-04-09T03:01:45.265Z,11.80
2018-04-09T03:04:13.512Z,11.90
2018-04-09T03:06:42.549Z,11.80
2018-04-09T03:09:10.816Z,11.80
2018-04-09T03:11:39.063Z,11.70
2018-04-09T03:14:07.322Z,11.60
2018-04-09T03:16:35.585Z,11.50
2018-04-09T03:19:03.834Z,11.40
2018-04-09T03:21:32.084Z,11.40
2018-04-09T03:24:01.541Z,11.40
2018-04-09T03:26:29.787Z,11.40
2018-04-09T03:28:58.152Z,11.40
2018-04-09T03:31:26.430Z,11.40
2018-04-09T03:33:54.698Z,11.40
2018-04-09T03:36:22.928Z,11.20
2018-04-09T03:38:51.200Z,11.10
2018-04-09T03:41:19.441Z,11.10
2018-04-09T03:43:48.110Z,11.00
2018-04-09T03:46:17.444Z,11.20
2018-04-09T03:48:45.685Z,11.20
2018-04-09T03:51:13.928Z,11.20
2018-04-09T03:53:42.205Z,11.10
2018-04-09T03:56:10.453Z,11.00
2018-04-09T03:58:38.700Z,11.00
2018-04-09T04:01:06.980Z,11.10
2018-04-09T04:03:35.233Z,11.00
2018-04-09T04:06:03.490Z,10.90
2018-04-09T04:08:32.262Z,10.80
2018-04-09T04:11:00.524Z,10.70
2018-04-09T04:13:28.928Z,10.70
2018-04-09T04:16:08.880Z,10.60
2018-04-09T04:18:48.846Z,10.60
2018-04-09T04:21:28.788Z,10.50
2018-04-09T04:23:57.036Z,10.50
2018-04-09T04:26:25.289Z,10.50
2018-04-09T04:28:53.992Z,10.40
2018-04-09T04:31:22.228Z,10.50
2018-04-09T04:33:50.497Z,10.50
2018-04-09T04:36:18.777Z,10.50
2018-04-09T04:38:47.785Z,10.50
2018-04-09T04:41:16.032Z,10.50
2018-04-09T04:43:44.392Z,10.50
2018-04-09T04:46:12.800Z,10.50
2018-04-09T04:48:41.043Z,10.50
2018-04-09T04:51:10.021Z,10.50
2018-04-09T04:53:38.276Z,10.50
2018-04-09T04:56:06.520Z,10.50
2018-04-09T04:58:34.791Z,10.50
2018-04-09T05:01:03.038Z,10.50
2018-04-09T05:03:31.285Z,10.50
2018-04-09T05:05:59.556Z,10.50
2018-04-09T05:08:27.989Z,10.50
2018-04-09T05:10:56.236Z,10.50
2018-04-09T05:13:24.823Z,10.50
2018-04-09T05:15:53.064Z,10.60
2018-04-09T05:18:21.393Z,10.80
2018-04-09T05:20:49.663Z,10.80
2018-04-09T05:23:17.904Z,10.90
2018-04-09T05:25:46.153Z,11.00
2018-04-09T05:28:14.422Z,11.00
2018-04-09T05:30:42.777Z,11.00
2018-04-09T05:33:11.030Z,10.90
2018-04-09T05:35:39.340Z,10.90
2018-04-09T05:38:07.585Z,10.90
2018-04-09T05:40:36.056Z,10.90
2018-04-09T05:43:04.324Z,11.00
2018-04-09T05:45:32.817Z,11.10
2018-04-09T05:48:01.470Z,11.00
2018-04-09T05:50:30.502Z,11.20
2018-04-09T05:52:58.887Z,11.10
2018-04-09T05:55:27.869Z,11.30
2018-04-09T05:57:56.528Z,11.30
2018-04-09T06:00:25.540Z,11.30
2018-04-09T06:02:53.928Z,11.30
2018-04-09T06:05:22.201Z,11.30
2018-04-09T06:07:50.454Z,11.30
2018-04-09T06:10:18.760Z,11.30
2018-04-09T06:12:47.029Z,11.40
2018-04-09T06:15:15.404Z,11.50
2018-04-09T06:17:43.835Z,11.60
2018-04-09T06:20:12.283Z,11.60
2018-04-09T06:22:41.677Z,11.60
2018-04-09T06:25:10.842Z,11.70
2018-04-09T06:27:39.101Z,11.70
2018-04-09T06:30:07.341Z,11.80
2018-04-09T06:32:35.585Z,11.80
2018-04-09T06:35:05.738Z,11.80
2018-04-09T06:37:33.976Z,11.90
2018-04-09T06:40:02.239Z,12.00
2018-04-09T06:42:30.767Z,12.10
2018-04-09T06:45:00.076Z,12.10
2018-04-09T06:47:28.324Z,12.10
2018-04-09T06:49:56.940Z,12.00
2018-04-09T06:52:25.188Z,12.10
2018-04-09T06:54:53.540Z,12.20
2018-04-09T06:57:22.576Z,12.30
2018-04-09T06:59:50.877Z,12.20
2018-04-09T07:02:19.189Z,12.30
2018-04-09T07:04:47.717Z,12.40
2018-04-09T07:07:16.696Z,12.50
2018-04-09T07:09:45.088Z,12.50
2018-04-09T07:12:13.356Z,12.50
2018-04-09T07:14:41.604Z,12.60
2018-04-09T07:17:09.857Z,12.60
2018-04-09T07:19:38.241Z,12.60
2018-04-09T07:22:06.484Z,12.70
2018-04-09T07:24:34.720Z,12.70
2018-04-09T07:27:03.436Z,12.70
2018-04-09T07:29:31.692Z,12.80
2018-04-09T07:31:59.936Z,12.90
2018-04-09T07:34:28.976Z,13.00
2018-04-09T07:36:57.223Z,13.00
2018-04-09T07:39:26.232Z,13.20
2018-04-09T07:41:54.504Z,13.20
2018-04-09T07:44:22.884Z,13.20
2018-04-09T07:46:51.112Z,13.20
2018-04-09T07:49:19.772Z,13.30
2018-04-09T07:51:48.210Z,13.40
2018-04-09T07:54:16.412Z,13.50
2018-04-09T07:56:44.689Z,13.60
2018-04-09T07:59:12.928Z,13.60
2018-04-09T08:01:41.373Z,13.70
2018-04-09T08:04:09.641Z,13.80
2018-04-09T08:06:37.901Z,13.90
2018-04-09T08:09:06.149Z,14.00
2018-04-09T08:11:35.236Z,14.10
2018-04-09T08:14:03.528Z,14.10
2018-04-09T08:16:32.852Z,14.30
2018-04-09T08:19:01.129Z,14.30
2018-04-09T08:21:29.382Z,14.40
2018-04-09T08:23:57.685Z,14.40
2018-04-09T08:26:26.406Z,14.50
2018-04-09T08:28:54.741Z,14.60
2018-04-09T08:31:23.136Z,14.70
2018-04-09T08:33:52.640Z,14.90
2018-04-09T08:36:20.950Z,14.90
2018-04-09T08:38:49.186Z,14.90
2018-04-09T08:41:17.635Z,14.80
2018-04-09T08:43:45.864Z,14.80
2018-04-09T08:46:14.121Z,14.90
2018-04-09T08:48:42.396Z,15.10
2018-04-09T08:51:10.644Z,15.30
2018-04-09T08:53:40.216Z,15.50
2018-04-09T08:56:09.453Z,15.60
2018-04-09T08:58:37.738Z,15.70
2018-04-09T09:01:06.748Z,15.90
2018-04-09T09:03:36.049Z,15.90
2018-04-09T09:06:04.404Z,16.00
2018-04-09T09:08:34.567Z,16.20
2018-04-09T09:11:03.008Z,16.30
2018-04-09T09:13:32.037Z,16.50
2018-04-09T09:16:00.387Z,16.40
2018-04-09T09:18:29.924Z,16.80
2018-04-09T09:20:58.174Z,16.80
2018-04-09T09:23:26.408Z,17.00
2018-04-09T09:25:56.385Z,17.30
2018-04-09T09:28:24.910Z,17.30
2018-04-09T09:30:53.157Z,17.40
2018-04-09T09:33:21.512Z,17.50
2018-04-09T09:35:49.760Z,17.70
2018-04-09T09:38:18.068Z,17.80
2018-04-09T09:40:46.624Z,17.90
2018-04-09T09:43:15.637Z,18.10
2018-04-09T09:45:43.886Z,18.10
2018-04-09T09:48:12.152Z,18.20
2018-04-09T09:50:40.437Z,18.20
2018-04-09T09:53:09.755Z,18.40
2018-04-09T09:55:38.797Z,18.50
2018-04-09T09:58:07.048Z,18.50
2018-04-09T10:00:40.921Z,18.70
2018-04-09T10:03:09.170Z,18.80
2018-04-09T10:05:37.411Z,18.90
2018-04-09T10:08:05.684Z,19.00
2018-04-09T10:10:33.937Z,19.10
2018-04-09T10:13:02.957Z,19.20
2018-04-09T10:15:31.293Z,19.20
2018-04-09T10:17:59.551Z,19.30
2018-04-09T10:20:27.788Z,19.40
2018-04-09T10:22:56.241Z,19.40
2018-04-09T10:25:24.489Z,19.60
2018-04-09T10:27:52.792Z,19.80
2018-04-09T10:30:21.339Z,20.00
2018-04-09T10:32:49.591Z,20.20
2018-04-09T10:35:17.834Z,20.40
2018-04-09T10:37:46.109Z,20.50
2018-04-09T10:40:14.365Z,20.60
2018-04-09T10:42:43.385Z,20.70
2018-04-09T10:45:11.898Z,20.60
2018-04-09T10:47:40.148Z,20.90
2018-04-09T10:50:08.432Z,21.10
2018-04-09T10:52:36.721Z,21.30
2018-04-09T10:55:04.967Z,21.40
2018-04-09T10:57:33.218Z,21.60
2018-04-09T11:00:03.354Z,22.50
2018-04-09T11:02:32.372Z,22.60
2018-04-09T11:05:00.623Z,22.50
2018-04-09T11:07:29.733Z,22.50
2018-04-09T11:09:57.982Z,22.40
2018-04-09T11:12:27.753Z,22.00
2018-04-09T11:14:56.039Z,22.00
2018-04-09T11:17:24.285Z,22.10
2018-04-09T11:19:52.537Z,22.30
2018-04-09T11:22:21.580Z,23.00
2018-04-09T11:24:49.834Z,22.90
2018-04-09T11:27:18.085Z,23.30
2018-04-09T11:29:46.708Z,23.80
2018-04-09T11:32:15.048Z,24.60
2018-04-09T11:34:44.064Z,25.70
2018-04-09T11:37:12.347Z,25.60
2018-04-09T11:39:40.589Z,25.90
2018-04-09T11:42:08.834Z,25.60
2018-04-09T11:44:37.106Z,25.50
2018-04-09T11:47:05.360Z,25.50
2018-04-09T11:49:33.605Z,25.80
2018-04-09T11:52:02.148Z,26.40
2018-04-09T11:54:31.043Z,26.90
2018-04-09T11:56:59.299Z,27.30
2018-04-09T11:59:27.589Z,27.40
2018-04-09T12:01:55.820Z,27.50
2018-04-09T12:04:24.255Z,27.50
2018-04-09T12:06:52.534Z,27.30
2018-04-09T12:09:20.790Z,27.10
2018-04-09T12:11:49.039Z,26.90
2018-04-09T12:14:17.994Z,26.80
2018-04-09T12:16:46.223Z,26.60
2018-04-09T12:19:15.259Z,26.20
2018-04-09T12:21:43.555Z,26.10
2018-04-09T12:24:12.575Z,26.30
2018-04-09T12:26:40.908Z,26.20
2018-04-09T12:29:09.175Z,26.80
2018-04-09T12:31:37.431Z,27.40
2018-04-09T12:34:05.751Z,27.80
2018-04-09T12:36:34.066Z,27.80
2018-04-09T12:39:02.315Z,27.60
2018-04-09T12:41:30.606Z,27.40
2018-04-09T12:43:58.879Z,27.20
2018-04-09T12:46:27.138Z,26.90
2018-04-09T12:48:55.386Z,26.70
2018-04-09T12:51:23.652Z,26.80
2018-04-09T12:53:51.891Z,27.50
2018-04-09T12:56:20.576Z,28.30
2018-04-09T12:58:50.090Z,28.90
2018-04-09T13:01:18.338Z,28.80
2018-04-09T13:03:46.659Z,29.20
2018-04-09T13:06:14.918Z,29.80
2018-04-09T13:08:43.168Z,30.30
2018-04-09T13:11:11.486Z,30.80
2018-04-09T13:13:39.868Z,31.20
2018-04-09T13:16:08.102Z,31.80
2018-04-09T13:18:36.621Z,32.40
2018-04-09T13:21:05.312Z,33.00
2018-04-09T13:23:33.554Z,33.80
2018-04-09T13:26:01.834Z,34.30
2018-04-09T13:28:30.079Z,34.60
2018-04-09T13:30:58.323Z,34.70
2018-04-09T13:33:26.567Z,34.80
2018-04-09T13:35:54.834Z,34.70
2018-04-09T13:38:23.168Z,34.30
2018-04-09T13:40:51.391Z,34.00
2018-04-09T13:43:20.642Z,32.90
2018-04-09T13:45:48.886Z,32.80
2018-04-09T13:48:17.162Z,32.40
2018-04-09T13:50:45.546Z,31.90
2018-04-09T13:53:13.791Z,31.20
2018-04-09T13:55:42.026Z,30.50
2018-04-09T13:58:10.980Z,29.90
2018-04-09T14:00:39.283Z,29.50
2018-04-09T14:03:08.643Z,29.10
2018-04-09T14:05:37.424Z,28.70
2018-04-09T14:08:05.664Z,28.40
2018-04-09T14:10:34.067Z,28.00
2018-04-09T14:13:02.806Z,27.70
2018-04-09T14:15:31.059Z,27.50
2018-04-09T14:17:59.302Z,27.20
2018-04-09T14:20:27.574Z,27.10
2018-04-09T14:22:55.814Z,27.10
2018-04-09T14:25:24.058Z,27.00
2018-04-09T14:27:52.779Z,26.90
2018-04-09T14:30:21.140Z,26.90
2018-04-09T14:32:49.390Z,26.80
2018-04-09T14:35:17.666Z,26.80
2018-04-09T14:37:46.831Z,26.70
2018-04-09T14:40:15.075Z,26.70
2018-04-09T14:42:43.350Z,26.70
2018-04-09T14:45:11.704Z,26.90
2018-04-09T14:47:40.715Z,27.90
2018-04-09T14:50:09.035Z,27.90
2018-04-09T14:52:37.310Z,27.70
2018-04-09T14:55:06.846Z,27.50
2018-04-09T14:57:35.195Z,27.30
2018-04-09T15:00:03.443Z,26.90
2018-04-09T15:02:31.926Z,26.70
2018-04-09T15:05:00.315Z,26.60
2018-04-09T15:07:28.563Z,26.50
2018-04-09T15:09:56.888Z,26.30
2018-04-09T15:12:25.451Z,26.10
2018-04-09T15:14:53.743Z,26.00
2018-04-09T15:17:21.954Z,25.80
2018-04-09T15:19:50.409Z,25.70
2018-04-09T15:22:18.639Z,25.60
2018-04-09T15:24:46.905Z,25.60
2018-04-09T15:27:15.351Z,25.60
2018-04-09T15:29:43.834Z,25.50
2018-04-09T15:32:12.171Z,25.50
2018-04-09T15:34:40.847Z,25.60
2018-04-09T15:37:10.098Z,25.70
2018-04-09T15:39:38.343Z,25.80
2018-04-09T15:42:06.619Z,26.00
2018-04-09T15:44:34.883Z,26.20
2018-04-09T15:47:03.118Z,26.30
2018-04-09T15:49:31.443Z,26.10
2018-04-09T15:51:59.754Z,26.30
2018-04-09T15:54:27.998Z,26.50
2018-04-09T15:56:56.364Z,26.70
2018-04-09T15:59:24.615Z,26.70
2018-04-09T16:01:53.642Z,26.40
2018-04-09T16:04:21.926Z,26.40
2018-04-09T16:06:50.323Z,26.10
2018-04-09T16:09:19.638Z,25.90
2018-04-09T16:11:47.902Z,25.70
2018-04-09T16:14:16.149Z,25.60
2018-04-09T16:16:44.479Z,25.50
2018-04-09T16:19:12.817Z,25.30
2018-04-09T16:21:41.059Z,25.20
2018-04-09T16:24:09.302Z,25.00
2018-04-09T16:26:37.571Z,24.80
2018-04-09T16:29:05.823Z,24.70
2018-04-09T16:31:34.131Z,24.60
2018-04-09T16:34:02.536Z,24.50
2018-04-09T16:36:32.727Z,24.30
2018-04-09T16:39:01.123Z,24.30
2018-04-09T16:41:29.447Z,24.20
2018-04-09T16:43:58.802Z,24.10
2018-04-09T16:46:27.164Z,23.90
2018-04-09T16:48:55.601Z,23.80
2018-04-09T16:51:24.614Z,23.60
2018-04-09T16:53:53.830Z,23.60
2018-04-09T16:56:22.114Z,23.60
2018-04-09T16:58:50.342Z,23.50
2018-04-09T17:01:18.674Z,23.50
2018-04-09T17:03:47.143Z,23.40
2018-04-09T17:06:15.502Z,23.30
2018-04-09T17:08:44.308Z,23.30
2018-04-09T17:11:12.689Z,23.20
2018-04-09T17:13:42.103Z,23.10
2018-04-09T17:16:11.088Z,23.00
2018-04-09T17:18:40.421Z,23.00
2018-04-09T17:21:09.591Z,22.80
2018-04-09T17:23:37.820Z,22.80
2018-04-09T17:26:06.138Z,22.70
2018-04-09T17:28:34.391Z,22.60
2018-04-09T17:31:02.635Z,22.50
2018-04-09T17:33:31.673Z,22.30
2018-04-09T17:35:59.924Z,22.30
2018-04-09T17:38:28.166Z,22.20
2018-04-09T17:40:58.599Z,22.20
2018-04-09T17:43:27.624Z,22.00
2018-04-09T17:45:55.867Z,21.90
2018-04-09T17:48:24.395Z,21.80
2018-04-09T17:50:54.855Z,21.80
2018-04-09T17:53:23.234Z,21.80
2018-04-09T17:55:51.686Z,21.70
2018-04-09T18:00:54.275Z,21.50
2018-04-09T18:03:22.587Z,21.50
2018-04-09T18:05:51.346Z,21.40
2018-04-09T18:08:20.034Z,21.40
2018-04-09T18:10:48.338Z,21.30
2018-04-09T18:13:17.686Z,21.30
2018-04-09T18:15:46.042Z,21.20
2018-04-09T18:18:15.059Z,21.00
2018-04-09T18:20:43.386Z,21.00
2018-04-09T18:23:11.673Z,21.00
2018-04-09T18:25:39.905Z,20.90
2018-04-09T18:28:08.295Z,20.80
2018-04-09T18:30:39.134Z,20.80
2018-04-09T18:33:07.438Z,20.70
2018-04-09T18:35:35.732Z,20.60
2018-04-09T18:38:03.958Z,20.60
2018-04-09T18:40:32.267Z,20.50
2018-04-09T18:43:00.519Z,20.50
2018-04-09T18:45:28.787Z,20.50
2018-04-09T18:47:57.026Z,20.50
2018-04-09T18:50:25.286Z,20.40
2018-04-09T18:52:53.706Z,20.30
2018-04-09T18:55:21.963Z,20.30
2018-04-09T18:57:50.978Z,20.20
2018-04-09T19:00:19.254Z,20.20
2018-04-09T19:02:47.682Z,20.20
2018-04-09T19:05:16.742Z,20.20
2018-04-09T19:07:45.389Z,20.10
2018-04-09T19:10:14.409Z,20.00
2018-04-09T19:12:42.655Z,20.00
2018-04-09T19:15:10.972Z,19.90
2018-04-09T19:17:39.223Z,19.90
2018-04-09T19:20:08.242Z,19.70
2018-04-09T19:22:36.510Z,19.70
2018-04-09T19:25:04.963Z,19.60
2018-04-09T19:27:33.970Z,19.50
2018-04-09T19:30:02.267Z,19.50
2018-04-09T19:32:30.678Z,19.40
2018-04-09T19:35:04.699Z,19.30
2018-04-09T19:37:38.634Z,19.20
2018-04-09T19:40:13.358Z,19.00
2018-04-09T19:45:51.340Z,18.90
2018-04-09T19:48:19.566Z,18.80
2018-04-09T19:50:47.819Z,18.70
2018-04-09T19:53:16.164Z,18.60
2018-04-09T19:55:44.415Z,18.60
2018-04-09T19:58:12.672Z,18.50
2018-04-09T20:00:40.942Z,18.40
2018-04-09T20:03:09.967Z,18.30
2018-04-09T20:05:38.394Z,18.30
2018-04-09T20:08:06.729Z,18.30
2018-04-09T20:10:35.120Z,18.20
2018-04-09T20:13:03.463Z,18.20
2018-04-09T20:15:32.192Z,18.10
2018-04-09T20:18:00.435Z,18.10
2018-04-09T20:20:28.874Z,18.00
2018-04-09T20:22:57.186Z,18.00
2018-04-09T20:25:25.435Z,18.00
2018-04-09T20:27:54.455Z,17.90
2018-04-09T20:30:22.726Z,17.90
2018-04-09T20:32:51.744Z,17.80
2018-04-09T20:35:19.995Z,17.80
2018-04-09T20:37:48.519Z,17.80
2018-04-09T20:40:16.867Z,17.70
2018-04-09T20:42:45.886Z,17.70
2018-04-09T20:45:14.496Z,17.70
2018-04-09T20:47:42.738Z,17.70
2018-04-09T20:50:10.986Z,17.60
2018-04-09T20:52:40.029Z,17.40
2018-04-09T20:55:08.281Z,17.40
2018-04-09T20:57:36.518Z,17.40
2018-04-09T21:00:06.138Z,17.30
2018-04-09T21:02:35.154Z,17.20
2018-04-09T21:05:03.398Z,17.20
2018-04-09T21:07:32.498Z,17.20
2018-04-09T21:10:00.783Z,17.20
2018-04-09T21:12:29.798Z,17.10
2018-04-09T21:14:58.066Z,17.10
2018-04-09T21:17:26.322Z,17.10
2018-04-09T21:19:55.357Z,17.00
2018-04-09T21:22:23.978Z,17.00
2018-04-09T21:24:52.207Z,17.00
2018-04-09T21:27:20.454Z,17.00
2018-04-09T21:29:48.731Z,17.10
2018-04-09T21:32:16.975Z,17.10
2018-04-09T21:34:45.218Z,17.00
2018-04-09T21:37:13.535Z,16.90
2018-04-09T21:39:41.782Z,16.70
2018-04-09T21:42:10.027Z,16.70
2018-04-09T21:44:39.376Z,16.70
2018-04-09T21:47:07.622Z,16.60
2018-04-09T21:49:35.862Z,16.70
2018-04-09T21:52:04.134Z,16.70
2018-04-09T21:54:32.381Z,16.60
2018-04-09T21:57:00.627Z,16.60
2018-04-09T21:59:28.906Z,16.50
2018-04-09T22:01:57.164Z,16.40
2018-04-09T22:04:25.403Z,16.30
2018-04-09T22:06:53.871Z,16.30
2018-04-09T22:09:22.443Z,16.20
2018-04-09T22:11:50.703Z,16.10
2018-04-09T22:14:18.974Z,16.10
2018-04-09T22:16:47.218Z,16.10
2018-04-09T22:19:15.466Z,16.10
2018-04-09T22:21:43.731Z,16.00
2018-04-09T22:24:11.983Z,15.90
2018-04-09T22:26:40.307Z,15.90
2018-04-09T22:29:08.664Z,15.90
2018-04-09T22:31:36.914Z,15.90
2018-04-09T22:34:05.540Z,15.80
2018-04-09T22:36:33.847Z,15.80
2018-04-09T22:39:02.078Z,15.80
2018-04-09T22:41:30.333Z,15.80
2018-04-09T22:43:58.602Z,15.70
2018-04-09T22:46:26.854Z,15.70
2018-04-09T22:48:55.201Z,15.70
2018-04-09T22:51:23.494Z,15.60
2018-04-09T22:53:51.961Z,15.60
2018-04-09T22:56:20.199Z,15.60
2018-04-09T22:58:48.466Z,15.50
2018-04-09T23:01:16.720Z,15.50
2018-04-09T23:03:44.970Z,15.50
2018-04-09T23:06:13.240Z,15.50
2018-04-09T23:08:41.488Z,15.50
2018-04-09T23:11:10.147Z,15.40
2018-04-09T23:13:39.243Z,15.40
2018-04-09T23:16:07.682Z,15.40
2018-04-09T23:18:35.916Z,15.40
2018-04-09T23:21:04.200Z,15.40
2018-04-09T23:23:32.451Z,15.40
2018-04-09T23:26:00.702Z,15.30
2018-04-09T23:28:28.971Z,15.30
2018-04-09T23:30:57.223Z,15.20
2018-04-09T23:33:25.475Z,15.20
2018-04-09T23:35:54.290Z,15.10
2018-04-09T23:38:22.595Z,15.10
2018-04-09T23:40:50.844Z,15.10
2018-04-09T23:43:19.133Z,15.00
2018-04-09T23:45:47.380Z,15.00
2018-04-09T23:48:15.631Z,14.90
2018-04-09T23:50:43.907Z,14.90
2018-04-09T23:53:12.927Z,14.80
2018-04-09T23:55:41.179Z,14.80
2018-04-09T23:58:09.515Z,14.80
